Time;durP1;ratioP1;P1;durP2;ratioP2;P2;SDS_P1;SDS_P2;PMS_P1;PMS_P2;Temp;Humidity;BMP_temperature;BMP_pressure;BME280_temperature;BME280_humidity;BME280_pressure;Samples;Min_cycle;Max_cycle;Signal;HPM_P1;HPM_P2
2023/12/31 00:01:17;;;;;;;3.05;1.20;;;;;;;10.37;100.00;100314.06;5280816;28;20033;-81
2023/12/31 00:03:49;;;;;;;4.50;1.50;;;;;;;10.43;100.00;100312.69;5283243;28;20101;-84
2023/12/31 00:06:21;;;;;;;4.05;1.30;;;;;;;10.43;100.00;100312.69;5279728;28;20101;-81
2023/12/31 00:08:53;;;;;;;5.15;1.80;;;;;;;10.46;100.00;100294.09;5283119;28;20394;-81
2023/12/31 00:11:25;;;;;;;3.10;1.65;;;;;;;10.45;100.00;100289.78;5282499;28;20036;-84
2023/12/31 00:13:57;;;;;;;4.78;1.50;;;;;;;10.47;100.00;100280.81;5282081;28;20024;-81
2023/12/31 00:16:29;;;;;;;2.97;1.33;;;;;;;10.43;100.00;100284.72;5281006;28;20051;-83
2023/12/31 00:19:02;;;;;;;2.80;1.17;;;;;;;10.50;100.00;100276.28;5279248;28;20489;-81
2023/12/31 00:21:34;;;;;;;1.80;1.00;;;;;;;10.46;100.00;100254.78;5280671;28;20413;-83
2023/12/31 00:24:06;;;;;;;4.15;1.08;;;;;;;10.52;100.00;100258.63;5267132;28;20052;-80
2023/12/31 00:26:37;;;;;;;3.50;0.90;;;;;;;10.50;100.00;100247.47;5281573;28;20028;-84
2023/12/31 00:29:10;;;;;;;3.92;1.00;;;;;;;10.53;100.00;100257.66;5281927;28;20039;-81
2023/12/31 00:31:42;;;;;;;2.75;0.85;;;;;;;10.56;100.00;100252.94;5282086;28;20477;-81
2023/12/31 00:34:15;;;;;;;2.22;0.70;;;;;;;10.58;100.00;100234.47;5279433;28;20036;-80
2023/12/31 00:36:47;;;;;;;3.28;0.82;;;;;;;10.56;100.00;100236.41;5278536;28;20481;-80
2023/12/31 00:39:19;;;;;;;1.95;0.73;;;;;;;10.50;100.00;100232.59;5282573;28;20039;-81
2023/12/31 00:41:51;;;;;;;2.88;0.77;;;;;;;10.54;100.00;100235.75;5280840;28;20028;-80
2023/12/31 00:44:23;;;;;;;1.65;0.77;;;;;;;10.55;100.00;100221.66;5279091;28;20038;-81
2023/12/31 00:46:55;;;;;;;2.25;0.80;;;;;;;10.53;100.00;100219.22;5284520;28;20560;-82
2023/12/31 00:49:27;;;;;;;2.38;0.80;;;;;;;10.51;100.00;100217.69;5280045;28;20047;-81
2023/12/31 00:51:58;;;;;;;2.28;1.00;;;;;;;10.53;100.00;100218.34;5280032;28;20035;-84
2023/12/31 00:54:30;;;;;;;3.55;0.75;;;;;;;10.56;100.00;100210.22;5270699;28;20207;-81
2023/12/31 00:57:03;;;;;;;2.10;0.77;;;;;;;10.58;100.00;100205.66;5282469;28;20039;-82
2023/12/31 00:59:35;;;;;;;1.92;0.70;;;;;;;10.59;100.00;100207.31;5278162;28;20039;-80
2023/12/31 01:02:08;;;;;;;2.45;0.68;;;;;;;10.52;100.00;100211.47;5270539;28;20040;-84
2023/12/31 01:04:40;;;;;;;2.85;0.95;;;;;;;10.55;100.00;100198.91;5280332;28;20040;-81
2023/12/31 01:07:13;;;;;;;2.50;0.70;;;;;;;10.55;100.00;100198.91;5276527;28;20063;-82
2023/12/31 01:09:45;;;;;;;3.10;0.77;;;;;;;10.56;100.00;100189.25;5279815;28;20075;-81
2023/12/31 01:12:17;;;;;;;2.35;0.98;;;;;;;10.52;100.00;100177.44;5280303;28;20028;-83
2023/12/31 01:14:49;;;;;;;2.90;0.77;;;;;;;10.53;100.00;100179.91;5281658;28;20030;-81
2023/12/31 01:17:20;;;;;;;1.33;0.65;;;;;;;10.54;100.00;100171.09;5268285;28;20417;-84
2023/12/31 01:19:53;;;;;;;1.85;0.80;;;;;;;10.53;100.00;100171.22;5281212;28;20038;-81
2023/12/31 01:22:25;;;;;;;2.17;0.80;;;;;;;10.54;100.00;100165.03;5280487;28;20028;-81
2023/12/31 01:24:58;;;;;;;1.92;0.80;;;;;;;10.50;100.00;100167.09;5277209;28;20302;-81
2023/12/31 01:27:30;;;;;;;1.40;0.63;;;;;;;10.55;100.00;100150.94;5277606;28;20027;-81
2023/12/31 01:30:02;;;;;;;1.38;0.77;;;;;;;10.47;100.00;100149.88;5277382;28;20071;-83
2023/12/31 01:32:34;;;;;;;4.07;1.13;;;;;;;10.44;100.00;100141.50;5281260;28;20390;-82
2023/12/31 01:35:06;;;;;;;1.95;0.82;;;;;;;10.44;100.00;100144.94;5277121;28;20024;-82
2023/12/31 01:37:38;;;;;;;1.95;0.80;;;;;;;10.45;100.00;100149.22;5278040;28;20036;-81
2023/12/31 01:40:11;;;;;;;1.70;0.85;;;;;;;10.51;100.00;100134.72;5281436;28;20032;-83
2023/12/31 01:42:45;;;;;;;2.05;0.77;;;;;;;10.51;100.00;100133.88;5276587;28;20107;-81
2023/12/31 01:45:17;;;;;;;2.55;1.05;;;;;;;10.46;100.00;100127.28;5278294;28;20028;-85
2023/12/31 01:47:51;;;;;;;3.05;0.93;;;;;;;10.44;100.00;100117.94;5278386;28;20701;-81
2023/12/31 01:50:24;;;;;;;2.90;0.93;;;;;;;10.40;100.00;100113.97;5280016;28;20028;-81
2023/12/31 01:52:56;;;;;;;2.17;0.70;;;;;;;10.44;100.00;100121.38;5279973;28;20028;-83
2023/12/31 01:55:28;;;;;;;2.80;0.77;;;;;;;10.49;100.00;100107.81;5282027;28;20071;-81
2023/12/31 01:58:01;;;;;;;2.42;0.88;;;;;;;10.42;100.00;100104.19;5279249;28;20036;-84
2023/12/31 02:00:33;;;;;;;2.65;1.05;;;;;;;10.41;100.00;100105.13;5280356;28;20025;-85
2023/12/31 02:03:05;;;;;;;1.90;0.80;;;;;;;10.40;100.00;100091.22;5276961;28;20389;-81
2023/12/31 02:05:37;;;;;;;2.50;1.00;;;;;;;10.44;100.00;100099.59;5280313;28;20039;-81
2023/12/31 02:08:11;;;;;;;3.90;1.08;;;;;;;10.42;100.00;100093.69;5282139;28;20044;-83
2023/12/31 02:10:43;;;;;;;4.28;0.90;;;;;;;10.41;100.00;100081.56;5282926;28;20051;-83
2023/12/31 02:13:16;;;;;;;5.10;0.80;;;;;;;10.35;100.00;100077.75;5280490;28;20036;-83
2023/12/31 02:15:51;;;;;;;3.17;0.90;;;;;;;10.45;100.00;100072.44;5284842;28;20032;-83
2023/12/31 02:18:24;;;;;;;4.90;1.10;;;;;;;10.41;100.00;100069.28;5281839;28;20036;-83
2023/12/31 02:20:56;;;;;;;3.00;1.00;;;;;;;10.43;100.00;100063.91;5281076;28;20330;-83
2023/12/31 02:23:28;;;;;;;2.17;0.93;;;;;;;10.44;100.00;100055.91;5284116;28;20549;-83
2023/12/31 02:26:06;;;;;;;1.52;0.82;;;;;;;10.49;100.00;100052.81;5282024;28;20048;-83
2023/12/31 02:28:39;;;;;;;2.55;1.17;;;;;;;10.39;100.00;100050.28;5283124;28;20047;-83
2023/12/31 02:31:10;;;;;;;3.00;0.85;;;;;;;10.37;100.00;100044.38;5282572;28;20039;-83
2023/12/31 02:33:42;;;;;;;3.17;1.08;;;;;;;10.37;100.00;100035.69;5282026;28;20032;-83
2023/12/31 02:36:14;;;;;;;2.72;0.93;;;;;;;10.32;100.00;100015.19;5281123;28;20878;-83
2023/12/31 02:38:46;;;;;;;2.38;1.10;;;;;;;10.34;100.00;100017.66;5279593;28;20043;-82
2023/12/31 02:41:18;;;;;;;2.65;0.80;;;;;;;10.32;100.00;100014.38;5281900;28;20038;-83
2023/12/31 02:43:51;;;;;;;3.00;0.82;;;;;;;10.31;100.00;100013.56;5282734;28;20028;-83
2023/12/31 02:46:23;;;;;;;2.80;1.10;;;;;;;10.31;100.00;99994.41;5286483;28;20398;-83
2023/12/31 02:48:55;;;;;;;2.20;1.15;;;;;;;10.25;100.00;99987.97;5286812;28;20038;-83
2023/12/31 02:51:28;;;;;;;1.77;1.05;;;;;;;10.34;100.00;99991.47;5297902;28;20134;-83
2023/12/31 02:54:00;;;;;;;1.55;0.70;;;;;;;10.32;100.00;99978.53;5303439;28;20037;-83
2023/12/31 02:56:39;;;;;;;2.38;1.08;;;;;;;10.36;100.00;99964.19;5302659;28;20055;-83
2023/12/31 02:59:11;;;;;;;2.20;0.80;;;;;;;10.33;100.00;99976.75;5301643;28;20032;-82
2023/12/31 03:01:43;;;;;;;1.50;0.80;;;;;;;10.30;100.00;99969.19;5302086;28;20138;-83
2023/12/31 03:04:15;;;;;;;2.25;0.90;;;;;;;10.33;100.00;99964.47;5292153;28;20028;-83
2023/12/31 03:06:51;;;;;;;4.53;0.98;;;;;;;10.31;100.00;99948.13;5289935;28;20032;-83
2023/12/31 03:09:23;;;;;;;3.72;1.50;;;;;;;10.32;100.00;99955.00;5293970;28;20039;-83
2023/12/31 03:11:55;;;;;;;3.60;1.05;;;;;;;10.37;100.00;99944.06;5296512;28;20028;-83
2023/12/31 03:14:26;;;;;;;3.38;1.10;;;;;;;10.29;100.00;99939.56;5290437;28;20024;-83
2023/12/31 03:16:59;;;;;;;2.92;1.00;;;;;;;10.29;100.00;99930.91;5289577;28;20028;-83
2023/12/31 03:19:36;;;;;;;2.83;0.93;;;;;;;10.42;100.00;99926.13;5289274;28;20043;-83
2023/12/31 03:22:08;;;;;;;2.22;1.10;;;;;;;10.34;100.00;99899.84;5290556;28;20492;-83
2023/12/31 03:24:43;;;;;;;2.45;0.73;;;;;;;10.36;100.00;99909.19;5290736;28;20036;-83
2023/12/31 03:27:15;;;;;;;2.10;0.90;;;;;;;10.31;100.00;99893.13;5292248;28;20040;-83
2023/12/31 03:29:47;;;;;;;2.13;0.80;;;;;;;10.32;100.00;99889.53;5293352;28;20032;-83
2023/12/31 03:32:19;;;;;;;2.55;0.98;;;;;;;10.25;100.00;99880.63;5291743;28;20504;-83
2023/12/31 03:34:51;;;;;;;1.70;0.90;;;;;;;10.28;100.00;99875.09;5291378;28;20020;-83
2023/12/31 03:37:22;;;;;;;1.50;0.90;;;;;;;10.31;100.00;99871.38;5288908;28;20031;-83
2023/12/31 03:39:54;;;;;;;2.15;1.02;;;;;;;10.31;100.00;99856.47;5292190;28;20032;-83
2023/12/31 03:42:26;;;;;;;2.38;0.90;;;;;;;10.27;100.00;99847.28;5287191;28;20032;-83
2023/12/31 03:44:58;;;;;;;3.35;1.15;;;;;;;10.29;100.00;99847.94;5282760;28;20041;-83
2023/12/31 03:47:30;;;;;;;2.17;1.00;;;;;;;10.34;100.00;99823.91;5271225;28;20040;-82
2023/12/31 03:50:02;;;;;;;3.15;1.13;;;;;;;10.38;100.00;99830.50;5284073;28;20297;-83
2023/12/31 03:52:34;;;;;;;2.20;0.90;;;;;;;10.39;100.00;99827.72;5284484;28;20032;-83
2023/12/31 03:55:06;;;;;;;2.65;1.10;;;;;;;10.32;100.00;99803.13;5284686;28;20867;-83
2023/12/31 03:57:38;;;;;;;3.80;1.10;;;;;;;10.36;100.00;99814.13;5281999;28;20425;-83
2023/12/31 04:00:10;;;;;;;3.00;1.10;;;;;;;10.33;100.00;99802.16;5284671;28;20035;-83
2023/12/31 04:02:42;;;;;;;2.10;1.20;;;;;;;10.40;100.00;99807.59;5281930;28;20033;-83
2023/12/31 04:05:14;;;;;;;1.75;0.90;;;;;;;10.40;100.00;99792.72;5282430;28;20017;-83
2023/12/31 04:07:46;;;;;;;2.88;1.10;;;;;;;10.34;100.00;99776.78;5283138;28;20038;-83
2023/12/31 04:10:18;;;;;;;1.92;0.93;;;;;;;10.37;100.00;99771.25;5285364;28;20036;-83
2023/12/31 04:12:50;;;;;;;2.10;1.02;;;;;;;10.41;100.00;99783.88;5264629;28;20053;-83
2023/12/31 04:15:22;;;;;;;2.30;1.10;;;;;;;10.38;100.00;99778.13;5284979;28;20032;-83
2023/12/31 04:17:54;;;;;;;2.50;0.90;;;;;;;10.43;100.00;99771.47;5289821;28;20020;-83
2023/12/31 04:20:26;;;;;;;9.38;1.30;;;;;;;10.41;100.00;99765.53;5287744;28;20024;-83
2023/12/31 04:22:58;;;;;;;1.83;0.80;;;;;;;10.43;100.00;99755.75;5290586;28;20038;-83
2023/12/31 04:25:30;;;;;;;2.10;1.10;;;;;;;10.41;100.00;99744.59;5288741;28;20043;-83
2023/12/31 04:28:02;;;;;;;2.13;1.20;;;;;;;10.38;100.00;99749.31;5286408;28;20024;-83
2023/12/31 04:30:34;;;;;;;2.80;1.27;;;;;;;10.34;100.00;99748.84;5289619;28;20286;-83
2023/12/31 04:33:06;;;;;;;3.80;1.17;;;;;;;10.37;100.00;99747.69;5286974;28;20466;-83
2023/12/31 04:35:38;;;;;;;3.33;0.98;;;;;;;10.31;100.00;99736.06;5287032;28;20054;-83
2023/12/31 04:38:09;;;;;;;2.70;1.17;;;;;;;10.32;100.00;99739.50;5287835;28;20023;-83
2023/12/31 04:40:41;;;;;;;2.13;0.90;;;;;;;10.31;100.00;99722.97;5289224;28;20031;-83
2023/12/31 04:43:13;;;;;;;1.80;0.90;;;;;;;10.31;100.00;99733.44;5290532;28;20170;-83
2023/12/31 04:45:45;;;;;;;1.98;1.13;;;;;;;10.36;100.00;99725.13;5288476;28;20028;-83
2023/12/31 04:48:17;;;;;;;2.25;1.10;;;;;;;10.33;100.00;99715.75;5285916;28;20427;-83
2023/12/31 04:50:50;;;;;;;2.70;1.20;;;;;;;10.34;100.00;99713.97;5289461;28;20028;-83
2023/12/31 04:53:22;;;;;;;3.60;1.40;;;;;;;10.30;100.00;99710.03;5285928;28;20033;-83
2023/12/31 04:55:54;;;;;;;2.53;1.40;;;;;;;10.35;100.00;99708.59;5287847;28;20287;-83
2023/12/31 04:58:26;;;;;;;2.75;1.10;;;;;;;10.36;100.00;99693.69;5286498;28;20024;-83
2023/12/31 05:00:58;;;;;;;3.17;1.10;;;;;;;10.32;100.00;99692.38;5289193;28;20034;-83
2023/12/31 05:03:30;;;;;;;1.75;1.20;;;;;;;10.33;100.00;99683.53;5287413;28;20028;-83
2023/12/31 05:06:02;;;;;;;2.60;1.10;;;;;;;10.42;100.00;99699.13;5287321;28;20036;-83
2023/12/31 05:08:34;;;;;;;3.53;1.20;;;;;;;10.46;100.00;99689.97;5285738;28;20074;-83
2023/12/31 05:11:06;;;;;;;2.83;1.35;;;;;;;10.46;100.00;99676.06;5286637;28;20024;-82
2023/12/31 05:13:39;;;;;;;2.00;0.95;;;;;;;10.43;100.00;99671.16;5282463;28;20030;-83
2023/12/31 05:16:15;;;;;;;3.13;1.27;;;;;;;10.42;100.00;99677.38;5265463;28;20544;-83
2023/12/31 05:18:50;;;;;;;3.67;1.40;;;;;;;10.46;100.00;99670.84;5282162;28;20032;-83
2023/12/31 05:21:22;;;;;;;2.05;1.20;;;;;;;10.45;100.00;99666.56;5285604;28;20043;-83
2023/12/31 05:23:54;;;;;;;1.90;1.40;;;;;;;10.43;100.00;99639.72;5281847;28;20028;-83
2023/12/31 05:26:26;;;;;;;2.88;1.13;;;;;;;10.43;100.00;99634.50;5280483;28;20151;-83
2023/12/31 05:28:58;;;;;;;2.10;1.20;;;;;;;10.51;100.00;99652.84;5282644;28;20039;-83
2023/12/31 05:31:30;;;;;;;2.83;1.40;;;;;;;10.52;100.00;99638.75;5280079;28;20115;-83
2023/12/31 05:34:02;;;;;;;3.33;1.45;;;;;;;10.47;100.00;99620.91;5283731;28;20051;-83
2023/12/31 05:36:34;;;;;;;2.85;1.58;;;;;;;10.51;100.00;99617.97;5282221;28;20063;-83
2023/12/31 05:39:06;;;;;;;1.95;1.27;;;;;;;10.48;100.00;99630.41;5283829;28;20036;-83
2023/12/31 05:41:38;;;;;;;2.88;1.80;;;;;;;10.52;100.00;99624.84;5282404;28;20032;-83
2023/12/31 05:44:12;;;;;;;3.60;1.35;;;;;;;10.53;100.00;99608.16;5281045;28;20043;-83
2023/12/31 05:46:44;;;;;;;2.80;1.58;;;;;;;10.60;100.00;99603.91;5279889;28;20032;-83
2023/12/31 05:49:15;;;;;;;1.95;1.20;;;;;;;10.61;100.00;99595.09;5278995;28;20057;-82
2023/12/31 05:51:47;;;;;;;2.03;1.30;;;;;;;10.68;100.00;99596.06;5282210;28;20070;-83
2023/12/31 05:54:19;;;;;;;2.30;1.10;;;;;;;10.67;100.00;99600.50;5282055;28;20028;-83
2023/12/31 05:56:51;;;;;;;3.35;1.73;;;;;;;10.67;100.00;99595.25;5280852;28;20040;-83
2023/12/31 05:59:23;;;;;;;1.80;1.13;;;;;;;10.61;100.00;99603.78;5281473;28;20058;-83
2023/12/31 06:01:55;;;;;;;3.90;1.42;;;;;;;10.58;100.00;99584.94;5282125;28;20036;-83
2023/12/31 06:04:27;;;;;;;2.17;1.30;;;;;;;10.66;100.00;99583.16;5279355;28;20047;-83
2023/12/31 06:06:59;;;;;;;2.65;1.60;;;;;;;10.64;100.00;99589.53;5279213;28;20031;-83
2023/12/31 06:09:30;;;;;;;2.05;1.30;;;;;;;10.57;100.00;99571.03;5283590;28;20041;-83
2023/12/31 06:12:03;;;;;;;3.45;1.40;;;;;;;10.63;100.00;99580.03;5265561;28;20058;-83
2023/12/31 06:14:34;;;;;;;2.70;1.60;;;;;;;10.61;100.00;99577.59;5281967;28;20107;-82
2023/12/31 06:17:06;;;;;;;1.95;1.30;;;;;;;10.63;100.00;99574.78;5283877;28;20037;-83
2023/12/31 06:19:40;;;;;;;2.40;1.77;;;;;;;10.56;100.00;99560.69;5284879;28;20040;-83
2023/12/31 06:22:11;;;;;;;1.98;1.25;;;;;;;10.57;100.00;99567.56;5285097;28;20058;-83
2023/12/31 06:24:44;;;;;;;2.10;1.58;;;;;;;10.48;100.00;99548.41;5288657;28;20044;-82
2023/12/31 06:27:16;;;;;;;2.42;1.50;;;;;;;10.61;100.00;99553.19;5277377;28;20481;-83
2023/12/31 06:29:48;;;;;;;2.17;1.60;;;;;;;10.56;100.00;99545.81;5285625;28;20029;-83
2023/12/31 06:32:20;;;;;;;2.20;1.30;;;;;;;10.62;100.00;99541.72;5285975;28;20047;-83
2023/12/31 06:34:52;;;;;;;1.83;1.30;;;;;;;10.65;100.00;99529.13;5286508;28;20381;-84
2023/12/31 06:37:24;;;;;;;2.38;1.60;;;;;;;10.68;100.00;99531.44;5285575;28;20036;-84
2023/12/31 06:39:56;;;;;;;2.15;1.58;;;;;;;10.80;100.00;99523.25;5285804;28;20027;-84
2023/12/31 06:42:28;;;;;;;2.60;1.40;;;;;;;10.78;100.00;99517.34;5287527;28;20032;-84
2023/12/31 06:45:00;;;;;;;3.00;1.42;;;;;;;10.77;100.00;99506.03;5285599;28;20039;-84
2023/12/31 06:47:32;;;;;;;2.10;1.33;;;;;;;10.76;100.00;99503.56;5284470;28;20113;-84
2023/12/31 06:50:05;;;;;;;2.00;1.40;;;;;;;10.76;100.00;99487.84;5284609;28;20036;-84
2023/12/31 06:52:36;;;;;;;2.60;1.30;;;;;;;10.84;100.00;99496.56;5283371;28;20039;-84
2023/12/31 06:55:10;;;;;;;2.72;1.50;;;;;;;10.89;100.00;99496.06;5288549;28;20767;-84
2023/12/31 06:57:42;;;;;;;2.42;1.48;;;;;;;10.84;100.00;99487.88;5285400;28;20032;-83
2023/12/31 07:00:14;;;;;;;3.63;1.55;;;;;;;10.90;100.00;99480.16;5286614;28;20062;-82
2023/12/31 07:02:46;;;;;;;3.05;1.50;;;;;;;10.99;100.00;99480.16;5288077;28;20039;-84
2023/12/31 07:05:19;;;;;;;2.50;1.30;;;;;;;11.06;100.00;99486.34;5285508;28;20501;-83
2023/12/31 07:07:51;;;;;;;2.28;1.40;;;;;;;11.10;100.00;99480.63;5284616;28;20510;-84
2023/12/31 07:10:23;;;;;;;2.20;1.55;;;;;;;11.02;100.00;99479.81;5284316;28;20036;-84
2023/12/31 07:12:55;;;;;;;2.40;1.30;;;;;;;11.10;100.00;99474.56;5282919;28;20401;-84
2023/12/31 07:15:27;;;;;;;2.28;1.48;;;;;;;11.11;100.00;99465.72;5273684;28;20504;-84
2023/12/31 07:17:59;;;;;;;2.85;1.40;;;;;;;11.13;100.00;99455.88;5282781;28;20032;-84
2023/12/31 07:20:31;;;;;;;1.75;1.02;;;;;;;11.15;100.00;99451.28;5282936;28;20048;-84
2023/12/31 07:23:03;;;;;;;2.27;1.33;;;;;;;11.05;100.00;99433.13;5283444;28;20028;-84
2023/12/31 07:25:36;;;;;;;2.95;1.55;;;;;;;11.08;100.00;99440.66;5282528;28;20051;-84
2023/12/31 07:28:07;;;;;;;1.90;1.30;;;;;;;11.13;100.00;99440.16;5281486;28;20032;-84
2023/12/31 07:30:39;;;;;;;2.38;1.70;;;;;;;11.13;100.00;99442.78;5281173;28;20042;-84
2023/12/31 07:33:11;;;;;;;3.50;1.55;;;;;;;11.10;100.00;99417.72;5269551;28;20493;-84
2023/12/31 07:35:43;;;;;;;1.88;1.25;;;;;;;11.18;100.00;99427.38;5281352;28;20035;-84
2023/12/31 07:38:15;;;;;;;2.30;1.50;;;;;;;11.23;100.00;99422.44;5283101;28;20024;-84
2023/12/31 07:40:47;;;;;;;1.90;1.40;;;;;;;11.30;100.00;99420.78;5285755;28;20394;-84
2023/12/31 07:43:19;;;;;;;2.35;1.48;;;;;;;11.31;100.00;99413.72;5285423;28;20038;-84
2023/12/31 07:45:51;;;;;;;2.35;1.30;;;;;;;11.29;100.00;99406.03;5282794;28;20036;-84
2023/12/31 07:48:24;;;;;;;4.45;1.92;;;;;;;11.36;100.00;99411.41;5281733;28;20039;-84
2023/12/31 07:50:56;;;;;;;2.17;1.33;;;;;;;11.39;100.00;99413.69;5282224;28;20033;-84
2023/12/31 07:53:28;;;;;;;2.15;1.25;;;;;;;11.48;100.00;99415.31;5282089;28;20531;-84
2023/12/31 07:55:59;;;;;;;2.13;1.40;;;;;;;11.37;100.00;99419.13;5283747;28;20035;-83
2023/12/31 07:58:31;;;;;;;2.25;1.30;;;;;;;11.38;100.00;99415.50;5283455;28;20126;-84
2023/12/31 08:01:03;;;;;;;2.40;1.58;;;;;;;11.40;100.00;99412.69;5267404;28;20046;-84
2023/12/31 08:03:35;;;;;;;2.25;1.27;;;;;;;11.38;100.00;99402.38;5282321;28;20051;-84
2023/12/31 08:06:07;;;;;;;3.35;1.50;;;;;;;11.41;100.00;99396.81;5287547;28;20036;-85
2023/12/31 08:08:39;;;;;;;2.63;1.48;;;;;;;11.30;100.00;99401.59;5283117;28;20059;-84
2023/12/31 08:11:12;;;;;;;2.30;1.38;;;;;;;11.48;100.00;99398.72;5283063;28;20029;-84
2023/12/31 08:13:44;;;;;;;3.35;1.52;;;;;;;11.47;100.00;99391.84;5280127;28;20486;-84
2023/12/31 08:16:16;;;;;;;2.40;1.33;;;;;;;11.58;100.00;99383.59;5285758;28;20046;-84
2023/12/31 08:18:48;;;;;;;2.28;1.25;;;;;;;11.68;100.00;99400.75;5271071;28;20074;-84
2023/12/31 08:21:20;;;;;;;2.10;1.25;;;;;;;11.52;100.00;99398.22;5280121;28;20040;-84
2023/12/31 08:23:52;;;;;;;2.10;1.30;;;;;;;11.53;100.00;99407.72;5271596;28;20032;-84
2023/12/31 08:26:25;;;;;;;1.80;1.23;;;;;;;11.48;100.00;99396.09;5279385;28;20114;-84
2023/12/31 08:28:59;;;;;;;2.85;1.27;;;;;;;11.45;100.00;99387.59;5276895;28;20032;-84
2023/12/31 08:31:31;;;;;;;1.75;1.23;;;;;;;11.49;100.00;99403.00;5278862;28;20028;-84
2023/12/31 08:34:03;;;;;;;2.67;1.33;;;;;;;11.44;100.00;99400.91;5276419;28;20106;-84
2023/12/31 08:36:35;;;;;;;3.77;1.50;;;;;;;11.45;100.00;99402.53;5280832;28;20040;-84
2023/12/31 08:39:07;;;;;;;3.45;1.33;;;;;;;11.36;100.00;99396.47;5276583;28;20066;-84
2023/12/31 08:41:39;;;;;;;2.15;1.38;;;;;;;11.39;100.00;99403.19;5276279;28;20036;-84
2023/12/31 08:44:11;;;;;;;4.45;1.70;;;;;;;11.29;100.00;99397.31;5279056;28;20505;-84
2023/12/31 08:46:43;;;;;;;2.22;1.30;;;;;;;11.29;100.00;99400.78;5279697;28;20285;-84
2023/12/31 08:49:15;;;;;;;3.53;1.60;;;;;;;11.24;100.00;99397.03;5279518;28;20039;-84
2023/12/31 08:51:47;;;;;;;2.63;1.50;;;;;;;11.18;100.00;99396.72;5280187;28;20377;-84
2023/12/31 08:54:18;;;;;;;2.10;1.48;;;;;;;11.05;100.00;99379.91;5279093;28;20047;-84
2023/12/31 08:56:50;;;;;;;2.45;1.45;;;;;;;11.01;100.00;99403.00;5280631;28;20196;-85
2023/12/31 08:59:22;;;;;;;2.00;1.15;;;;;;;11.03;100.00;99395.00;5275950;28;20113;-83
2023/12/31 09:01:54;;;;;;;3.25;1.80;;;;;;;11.02;100.00;99409.88;5278703;28;20043;-84
2023/12/31 09:04:33;;;;;;;2.35;1.42;;;;;;;10.89;100.00;99401.72;5279137;28;20032;-83
2023/12/31 09:07:05;;;;;;;2.45;1.20;;;;;;;11.00;100.00;99397.94;5282177;28;20043;-84
2023/12/31 09:09:37;;;;;;;2.05;1.55;;;;;;;10.85;100.00;99406.47;5278888;28;20028;-84
2023/12/31 09:12:09;;;;;;;2.03;1.38;;;;;;;10.86;100.00;99415.16;5282290;28;20397;-84
2023/12/31 09:14:41;;;;;;;2.25;1.15;;;;;;;10.90;100.00;99413.84;5279028;28;20033;-84
2023/12/31 09:17:13;;;;;;;2.38;1.33;;;;;;;10.73;100.00;99418.31;5266439;28;20114;-84
2023/12/31 09:19:45;;;;;;;2.05;1.15;;;;;;;10.85;100.00;99430.06;5278362;28;20032;-84
2023/12/31 09:22:18;;;;;;;2.35;1.35;;;;;;;10.83;100.00;99410.25;5272799;28;20032;-84
2023/12/31 09:24:51;;;;;;;1.73;1.02;;;;;;;10.90;100.00;99425.13;5275499;28;20541;-83
2023/12/31 09:27:23;;;;;;;1.70;1.10;;;;;;;10.89;100.00;99418.25;5277789;28;20244;-83
2023/12/31 09:29:55;;;;;;;1.98;1.00;;;;;;;10.84;100.00;99428.44;5278600;28;20028;-83
2023/12/31 09:32:27;;;;;;;1.70;0.93;;;;;;;10.86;100.00;99430.88;5278827;28;20035;-83
2023/12/31 09:34:59;;;;;;;1.60;0.90;;;;;;;10.89;100.00;99433.16;5279061;28;20031;-83
2023/12/31 09:37:31;;;;;;;1.55;0.80;;;;;;;10.77;100.00;99444.97;5279548;28;20040;-83
2023/12/31 09:40:04;;;;;;;3.42;0.98;;;;;;;10.81;100.00;99444.47;5277877;28;20040;-83
2023/12/31 09:42:45;;;;;;;2.53;1.10;;;;;;;10.98;100.00;99457.53;5278482;28;20036;-83
2023/12/31 09:45:21;;;;;;;1.73;0.80;;;;;;;10.92;100.00;99444.13;5277702;28;20051;-83
2023/12/31 09:47:54;;;;;;;2.13;0.88;;;;;;;10.92;100.00;99448.56;5276159;28;20032;-83
2023/12/31 09:50:27;;;;;;;1.67;0.80;;;;;;;10.98;100.00;99454.94;5277376;28;20501;-83
2023/12/31 09:53:02;;;;;;;1.85;0.88;;;;;;;10.94;100.00;99464.91;5277423;28;20059;-83
2023/12/31 09:55:36;;;;;;;1.75;0.80;;;;;;;10.89;100.00;99465.44;5277232;28;20498;-83
2023/12/31 09:58:09;;;;;;;1.60;0.60;;;;;;;10.96;100.00;99461.16;5276304;28;20028;-83
2023/12/31 10:00:41;;;;;;;4.18;0.85;;;;;;;11.00;100.00;99468.69;5278147;28;20032;-83
2023/12/31 10:03:13;;;;;;;1.77;0.88;;;;;;;10.98;100.00;99474.09;5278247;28;20413;-83
2023/12/31 10:05:48;;;;;;;2.40;1.27;;;;;;;11.14;100.00;99465.41;5276370;28;20054;-83
2023/12/31 10:08:20;;;;;;;2.50;0.88;;;;;;;11.10;100.00;99467.53;5277077;28;20055;-83
2023/12/31 10:10:55;;;;;;;1.25;0.70;;;;;;;11.05;100.00;99450.66;5281239;28;20035;-83
2023/12/31 10:13:28;;;;;;;2.33;0.57;;;;;;;11.13;100.00;99461.94;5272091;28;20052;-83
2023/12/31 10:16:10;;;;;;;1.48;0.70;;;;;;;11.19;100.00;99469.13;5277197;28;20039;-83
2023/12/31 10:18:43;;;;;;;2.03;0.80;;;;;;;11.11;100.00;99463.09;5280900;28;20032;-83
2023/12/31 10:21:14;;;;;;;2.60;0.80;;;;;;;11.12;100.00;99460.31;5279786;28;20037;-83
2023/12/31 10:23:46;;;;;;;2.58;0.82;;;;;;;11.04;100.00;99462.13;5281297;28;20054;-83
2023/12/31 10:26:18;;;;;;;2.17;0.70;;;;;;;11.05;100.00;99463.75;5279930;28;20036;-83
2023/12/31 10:28:50;;;;;;;2.28;0.80;;;;;;;10.89;100.00;99462.81;5278839;28;20040;-83
2023/12/31 10:31:24;;;;;;;1.65;0.70;;;;;;;10.84;100.00;99461.69;5279541;28;20050;-84
2023/12/31 10:33:56;;;;;;;2.55;0.80;;;;;;;10.76;100.00;99457.25;5280252;28;20032;-83
2023/12/31 10:36:28;;;;;;;2.38;0.70;;;;;;;10.73;100.00;99464.63;5281110;28;20028;-83
2023/12/31 10:39:00;;;;;;;2.30;0.80;;;;;;;10.75;100.00;99471.31;5281527;28;20035;-83
2023/12/31 10:41:35;;;;;;;2.60;0.85;;;;;;;10.77;100.00;99477.22;5270080;28;20791;-83
2023/12/31 10:44:12;;;;;;;3.88;0.70;;;;;;;10.73;100.00;99486.41;5281143;28;20382;-84
2023/12/31 10:46:46;;;;;;;1.70;0.70;;;;;;;10.46;100.00;99475.28;5286355;28;20473;-84
2023/12/31 10:49:21;;;;;;;3.45;0.80;;;;;;;10.46;100.00;99477.88;5272690;28;20086;-84
2023/12/31 10:51:54;;;;;;;1.65;0.70;;;;;;;10.51;100.00;99471.34;5282316;28;20063;-84
2023/12/31 10:54:31;;;;;;;5.95;0.90;;;;;;;10.55;100.00;99463.00;5283244;28;20132;-84
2023/12/31 10:57:06;;;;;;;1.77;0.60;;;;;;;10.44;100.00;99451.03;5283239;28;20052;-84
2023/12/31 10:59:41;;;;;;;3.13;1.02;;;;;;;10.54;100.00;99463.97;5281204;28;20726;-84
2023/12/31 11:02:18;;;;;;;1.92;0.77;;;;;;;10.57;100.00;99457.56;5284840;28;20024;-84
2023/12/31 11:04:51;;;;;;;1.92;0.75;;;;;;;10.63;100.00;99460.38;5284720;28;20066;-84
2023/12/31 11:07:26;;;;;;;2.60;1.02;;;;;;;10.60;100.00;99472.97;5285863;28;20035;-84
2023/12/31 11:09:58;;;;;;;3.90;0.80;;;;;;;10.69;100.00;99475.44;5284249;28;20040;-84
2023/12/31 11:12:32;;;;;;;2.33;0.83;;;;;;;10.65;100.00;99475.94;5277039;28;20371;-84
2023/12/31 11:15:04;;;;;;;;;;;;;;;11.12;100.00;99477.84;5282002;28;20373;-82
2023/12/31 11:17:57;;;;;;;4.25;0.77;;;;;;;10.84;100.00;99477.41;5277196;28;19916;-82
2023/12/31 11:20:51;;;;;;;2.03;0.70;;;;;;;10.99;100.00;99480.16;5287859;28;20051;-82
2023/12/31 11:23:46;;;;;;;2.80;1.05;;;;;;;10.98;100.00;99483.75;5285903;28;20044;-82
2023/12/31 11:26:17;;;;;;;1.95;0.60;;;;;;;10.99;100.00;99473.13;5284062;28;20489;-82
2023/12/31 11:28:50;;;;;;;1.95;0.55;;;;;;;10.89;100.00;99465.44;5292467;28;20028;-82
2023/12/31 11:31:22;;;;;;;3.50;0.88;;;;;;;10.90;100.00;99476.72;5275601;28;20066;-82
2023/12/31 11:33:54;;;;;;;3.17;0.90;;;;;;;11.01;100.00;99476.38;5295212;28;20054;-82
2023/12/31 11:36:26;;;;;;;2.92;0.85;;;;;;;10.80;100.00;99478.72;5291729;28;20135;-82
2023/12/31 11:38:59;;;;;;;2.63;0.88;;;;;;;10.89;100.00;99491.63;5296481;28;20394;-82
2023/12/31 11:41:45;;;;;;;2.78;0.75;;;;;;;10.94;100.00;99483.25;5297428;28;20043;-82
2023/12/31 11:44:38;;;;;;;1.63;0.60;;;;;;;10.96;100.00;99483.94;5294910;28;20021;-82
2023/12/31 11:47:14;;;;;;;;;;;;;;;11.33;100.00;99485.19;5298766;28;20040;-82
2023/12/31 11:50:13;;;;;;;2.17;0.90;;;;;;;10.91;100.00;99479.19;5291021;28;20289;-83